Time;durP1;ratioP1;P1;durP2;ratioP2;P2;SDS_P1;SDS_P2;PMS_P1;PMS_P2;Temp;Humidity;BMP_temperature;BMP_pressure;BME280_temperature;BME280_humidity;BME280_pressure;Samples;Min_cycle;Max_cycle;Signal;HPM_P1;HPM_P2
2022/08/01 00:00:57;;;;;;;;;2.00;1.33;;;;;23.47;100.00;101403.66;5016131;28;45814;-74
2022/08/01 00:03:24;;;;;;;;;4.67;3.00;;;;;23.51;100.00;101408.41;5016156;28;45790;-77
2022/08/01 00:05:53;;;;;;;;;5.00;4.00;;;;;23.57;100.00;101406.44;5024233;28;45933;-79
2022/08/01 00:08:18;;;;;;;;;3.33;3.33;;;;;23.59;100.00;101393.84;5029390;28;46260;-77
2022/08/01 00:10:44;;;;;;;;;3.00;3.00;;;;;23.68;100.00;101405.31;5013873;28;45318;-78
2022/08/01 00:13:09;;;;;;;;;2.00;1.00;;;;;23.71;100.00;101393.56;5011958;28;45768;-78
2022/08/01 00:15:35;;;;;;;;;2.75;2.75;;;;;23.69;100.00;101393.00;5013148;28;45913;-77
2022/08/01 00:18:01;;;;;;;;;3.00;1.75;;;;;23.75;100.00;101400.25;5013399;28;45799;-76
2022/08/01 00:20:26;;;;;;;;;5.25;3.25;;;;;23.77;100.00;101400.84;5009664;28;45521;-76
2022/08/01 00:22:52;;;;;;;;;6.33;4.00;;;;;23.80;100.00;101393.81;5014436;28;45642;-77
2022/08/01 00:25:18;;;;;;;;;1.00;1.00;;;;;23.81;100.00;101398.28;5020998;28;45846;-75
2022/08/01 00:27:43;;;;;;;;;2.50;2.00;;;;;23.82;100.00;101391.59;5022359;28;45490;-75
2022/08/01 00:30:12;;;;;;;;;1.75;1.25;;;;;23.78;100.00;101382.88;5013481;28;45752;-74
2022/08/01 00:32:38;;;;;;;;;2.33;2.00;;;;;23.85;100.00;101378.94;5015131;28;45887;-78
2022/08/01 00:35:03;;;;;;;;;1.50;1.50;;;;;23.88;100.00;101386.84;5021313;28;46621;-75
2022/08/01 00:37:29;;;;;;;;;2.75;1.75;;;;;23.83;100.00;101373.63;5025388;28;45430;-74
2022/08/01 00:39:54;;;;;;;;;1.00;1.00;;;;;23.87;100.00;101365.56;5029639;28;45431;-74
2022/08/01 00:42:20;;;;;;;;;1.25;1.25;;;;;23.90;100.00;101374.22;5020348;28;45341;-78
2022/08/01 00:44:46;;;;;;;;;4.33;4.33;;;;;23.88;100.00;101370.88;5015034;28;45677;-76
2022/08/01 00:47:12;;;;;;;;;1.00;1.00;;;;;23.78;100.00;101354.06;5013416;28;45567;-76
2022/08/01 00:49:41;;;;;;;;;2.00;2.00;;;;;23.79;100.00;101358.53;5017368;28;45674;-75
2022/08/01 00:52:08;;;;;;;;;2.00;2.00;;;;;23.74;100.00;101352.94;5013464;28;45703;-76
2022/08/01 00:54:34;;;;;;;;;2.00;2.00;;;;;23.62;100.00;101328.88;5011420;28;45669;-77
2022/08/01 00:57:00;;;;;;;;;4.50;3.50;;;;;23.80;100.00;101368.59;5012393;28;47237;-76
2022/08/01 00:59:26;;;;;;;;;3.50;3.50;;;;;23.76;100.00;101368.34;5010436;28;45960;-75
2022/08/01 01:01:52;;;;;;;;;3.00;3.00;;;;;23.55;100.00;101335.91;5010144;28;45450;-77
2022/08/01 01:04:17;;;;;;;;;2.25;2.00;;;;;23.75;100.00;101368.63;5013695;28;45903;-77
2022/08/01 01:07:07;;;;;;;;;2.00;2.00;;;;;23.63;100.00;101354.91;5012612;28;45525;-74
2022/08/01 01:09:33;;;;;;;;;2.50;2.50;;;;;23.70;100.00;101368.63;5014075;28;45888;-76
2022/08/01 01:12:17;;;;;;;;;2.00;2.00;;;;;23.68;100.00;101368.91;5002622;28;45502;-76
2022/08/01 01:14:56;;;;;;;;;1.75;0.50;;;;;23.64;100.00;101365.00;5000850;28;46430;-75
2022/08/01 01:17:31;;;;;;;;;5.00;5.00;;;;;23.62;100.00;101368.09;5016916;28;46156;-78
2022/08/01 01:19:59;;;;;;;;;4.75;2.50;;;;;23.67;100.00;101355.19;5021941;28;45521;-77
2022/08/01 01:22:52;;;;;;;;;1.50;1.00;;;;;23.66;100.00;101371.16;5011758;28;45760;-76
2022/08/01 01:25:33;;;;;;;;;10.67;9.67;;;;;23.67;100.00;101363.56;5020984;28;46063;-75
2022/08/01 01:28:29;;;;;;;;;5.00;3.00;;;;;23.67;100.00;101361.63;5001680;28;45836;-74
2022/08/01 01:30:57;;;;;;;;;1.75;1.75;;;;;23.66;100.00;101375.91;5014447;28;45796;-74
2022/08/01 01:33:28;;;;;;;;;2.25;2.25;;;;;23.64;100.00;101376.22;5015775;28;45443;-75
2022/08/01 01:35:59;;;;;;;;;1.75;1.75;;;;;23.62;100.00;101361.63;5022189;28;47018;-74
2022/08/01 01:38:29;;;;;;;;;4.00;3.00;;;;;23.61;100.00;101365.56;5011225;28;45562;-75
2022/08/01 01:40:57;;;;;;;;;2.75;2.25;;;;;23.63;100.00;101360.50;5010681;28;45782;-75
2022/08/01 01:43:24;;;;;;;;;1.25;1.00;;;;;23.63;100.00;101361.34;5027833;28;45459;-76
2022/08/01 01:45:51;;;;;;;;;3.25;2.75;;;;;23.62;100.00;101356.88;5017483;28;45721;-76
2022/08/01 01:48:21;;;;;;;;;2.50;2.50;;;;;23.50;100.00;101342.31;5011856;28;46321;-74
2022/08/01 01:50:48;;;;;;;;;3.00;2.25;;;;;23.60;100.00;101373.09;5008302;28;46059;-75
2022/08/01 01:53:17;;;;;;;;;3.00;3.00;;;;;23.57;100.00;101376.47;5010120;28;45824;-73
2022/08/01 01:55:48;;;;;;;;;3.00;3.00;;;;;23.57;100.00;101373.69;5010909;28;45798;-74
2022/08/01 01:58:37;;;;;;;;;1.00;1.00;;;;;23.57;100.00;101361.66;5003441;28;46863;-73
2022/08/01 02:01:03;;;;;;;;;1.50;0.00;;;;;23.48;100.00;101344.56;5011607;28;45447;-72
2022/08/01 02:03:30;;;;;;;;;5.00;4.00;;;;;23.61;100.00;101369.19;5011545;28;45456;-75
2022/08/01 02:05:57;;;;;;;;;3.75;3.75;;;;;23.61;100.00;101360.78;5016602;28;45936;-74
2022/08/01 02:08:24;;;;;;;;;4.00;2.00;;;;;23.62;100.00;101354.09;5027731;28;45409;-74
2022/08/01 02:13:40;;;;;;;;;2.50;2.50;;;;;23.63;100.00;101358.53;5010393;28;45026;-74
2022/08/01 02:16:06;;;;;;;;;5.25;2.25;;;;;23.67;100.00;101361.63;5011325;28;45935;-75
2022/08/01 02:18:32;;;;;;;;;5.00;4.00;;;;;23.68;100.00;101365.25;5004558;28;45526;-76
2022/08/01 02:21:00;;;;;;;;;5.75;3.75;;;;;23.67;100.00;101356.03;5001951;28;45400;-76
2022/08/01 02:23:32;;;;;;;;;2.25;1.25;;;;;23.65;100.00;101352.66;5012855;28;45541;-77
2022/08/01 02:26:00;;;;;;;;;3.75;3.75;;;;;23.71;100.00;101361.91;5013543;28;45831;-75
2022/08/01 02:28:32;;;;;;;;;1.25;1.00;;;;;23.72;100.00;101364.41;5012032;28;45494;-74
2022/08/01 02:31:08;;;;;;;;;3.50;1.00;;;;;23.72;100.00;101361.63;5013279;28;45529;-74
2022/08/01 02:33:37;;;;;;;;;3.50;2.00;;;;;23.62;100.00;101340.09;5011261;28;45561;-73
2022/08/01 02:36:05;;;;;;;;;2.50;1.50;;;;;23.75;100.00;101365.81;5010228;28;45976;-74
2022/08/01 02:38:33;;;;;;;;;0.00;0.00;;;;;23.75;100.00;101366.66;5012814;28;46552;-74
2022/08/01 02:41:05;;;;;;;;;2.00;2.00;;;;;23.75;100.00;101358.25;5011553;28;45871;-74
2022/08/01 02:43:36;;;;;;;;;3.50;3.50;;;;;23.73;100.00;101356.88;5020443;28;45876;-74
2022/08/01 02:46:04;;;;;;;;;3.00;3.00;;;;;23.74;100.00;101358.53;5022570;28;45734;-73
2022/08/01 02:48:33;;;;;;;;;3.00;1.75;;;;;23.75;100.00;101355.44;5015813;28;45506;-74
2022/08/01 02:51:01;;;;;;;;;2.00;0.00;;;;;23.77;100.00;101363.56;5016643;28;45854;-74
2022/08/01 02:53:34;;;;;;;;;0.50;0.50;;;;;23.77;100.00;101370.03;5017834;28;45755;-77
2022/08/01 02:56:01;;;;;;;;;2.00;2.00;;;;;23.76;100.00;101365.53;5011616;28;46211;-74
2022/08/01 02:58:28;;;;;;;;;2.00;0.25;;;;;23.75;100.00;101361.03;5004610;28;45758;-74
2022/08/01 03:00:54;;;;;;;;;1.00;1.00;;;;;23.73;100.00;101357.69;5009867;28;45870;-73
2022/08/01 03:03:20;;;;;;;;;0.25;0.25;;;;;23.76;100.00;101353.50;5012565;28;45708;-73
2022/08/01 03:05:48;;;;;;;;;1.00;1.00;;;;;23.76;100.00;101359.09;5012596;28;46002;-73
2022/08/01 03:08:17;;;;;;;;;2.25;1.25;;;;;23.73;100.00;101357.69;5017881;28;45815;-74
2022/08/01 03:10:45;;;;;;;;;0.75;0.75;;;;;23.74;100.00;101353.78;5005691;28;45677;-74
2022/08/01 03:13:12;;;;;;;;;1.50;1.50;;;;;23.75;100.00;101349.84;5009480;28;45866;-74
2022/08/01 03:15:41;;;;;;;;;0.00;0.00;;;;;23.70;100.00;101337.81;4995249;28;47137;-73
2022/08/01 03:18:11;;;;;;;;;0.25;0.25;;;;;23.75;100.00;101349.84;5027403;28;45332;-74
2022/08/01 03:20:37;;;;;;;;;1.00;1.00;;;;;23.79;100.00;101359.38;5012907;28;45458;-73
2022/08/01 03:23:08;;;;;;;;;0.00;0.00;;;;;23.77;100.00;101361.63;5029355;28;45805;-74
2022/08/01 03:25:38;;;;;;;;;1.00;1.00;;;;;23.78;100.00;101370.84;5033816;28;45935;-74
2022/08/01 03:28:05;;;;;;;;;1.00;1.00;;;;;23.77;100.00;101358.81;5021886;28;46631;-73
2022/08/01 03:30:32;;;;;;;;;0.50;0.00;;;;;23.75;100.00;101357.41;5035292;28;45687;-73
2022/08/01 03:32:59;;;;;;;;;0.00;0.00;;;;;23.77;100.00;101360.75;5023077;28;45953;-73
2022/08/01 03:35:30;;;;;;;;;0.75;0.75;;;;;23.76;100.00;101356.31;5014318;28;46096;-74
2022/08/01 03:37:57;;;;;;;;;0.75;0.75;;;;;23.77;100.00;101358.81;5013002;28;47066;-74
2022/08/01 03:40:39;;;;;;;;;0.50;0.00;;;;;23.78;100.00;101366.06;5016527;28;45535;-73
2022/08/01 03:43:18;;;;;;;;;1.25;1.25;;;;;23.75;100.00;101352.66;5015152;28;45432;-74
2022/08/01 03:45:49;;;;;;;;;2.50;1.25;;;;;23.80;100.00;101355.44;5021324;28;45727;-74
2022/08/01 03:48:18;;;;;;;;;0.50;0.50;;;;;23.82;100.00;101357.97;5036991;28;46053;-76
2022/08/01 03:50:49;;;;;;;;;1.00;1.00;;;;;23.83;100.00;101358.81;5010095;28;45732;-76
2022/08/01 03:53:21;;;;;;;;;1.00;1.00;;;;;23.83;100.00;101356.81;5024953;28;45654;-76
2022/08/01 03:55:47;;;;;;;;;0.00;0.00;;;;;23.79;100.00;101352.94;5007240;28;45479;-76
2022/08/01 03:58:13;;;;;;;;;1.25;0.50;;;;;23.85;100.00;101360.22;5014614;28;45713;-76
2022/08/01 04:00:39;;;;;;;;;1.00;1.00;;;;;23.85;100.00;101364.94;5020615;28;45410;-75
2022/08/01 04:03:07;;;;;;;;;1.00;1.00;;;;;23.86;100.00;101370.28;5014390;28;45839;-76
2022/08/01 04:05:33;;;;;;;;;1.00;1.00;;;;;23.84;100.00;101357.69;5015756;28;45328;-76
2022/08/01 04:08:01;;;;;;;;;2.00;2.00;;;;;23.84;100.00;101360.50;5010225;28;46304;-77
2022/08/01 04:10:27;;;;;;;;;1.00;1.00;;;;;23.77;100.00;101352.34;5015552;28;45895;-75
2022/08/01 04:12:53;;;;;;;;;0.75;0.75;;;;;23.78;100.00;101354.88;5006328;28;45998;-76
2022/08/01 04:15:20;;;;;;;;;1.00;1.00;;;;;23.80;100.00;101347.06;5029164;28;45662;-77
2022/08/01 04:17:46;;;;;;;;;2.00;2.00;;;;;23.84;100.00;101344.50;5009036;28;45835;-75
2022/08/01 04:20:11;;;;;;;;;0.00;0.00;;;;;23.87;100.00;101351.53;5012788;28;45720;-77
2022/08/01 04:22:37;;;;;;;;;0.00;0.00;;;;;23.87;100.00;101346.78;5007832;28;45707;-75
2022/08/01 04:25:09;;;;;;;;;1.00;1.00;;;;;23.87;100.00;101343.97;5013681;28;45480;-77
2022/08/01 04:27:42;;;;;;;;;2.50;1.50;;;;;23.88;100.00;101342.03;5009395;28;46789;-76
2022/08/01 04:30:09;;;;;;;;;0.00;0.00;;;;;23.82;100.00;101337.50;5012194;28;45848;-76
2022/08/01 04:32:39;;;;;;;;;1.00;1.00;;;;;23.88;100.00;101340.06;5004662;28;45916;-77
2022/08/01 04:35:09;;;;;;;;;2.00;1.00;;;;;23.84;100.00;101336.09;5013484;28;45784;-76
2022/08/01 04:37:36;;;;;;;;;2.25;0.75;;;;;23.86;100.00;101338.66;5016910;28;46848;-77
2022/08/01 04:40:05;;;;;;;;;3.00;2.00;;;;;23.88;100.00;101348.47;5008694;28;45771;-77
2022/08/01 04:42:33;;;;;;;;;1.25;1.25;;;;;23.88;100.00;101347.63;5019124;28;46497;-77
2022/08/01 04:44:59;;;;;;;;;1.00;1.00;;;;;23.86;100.00;101347.06;5015527;28;45777;-74
2022/08/01 04:47:29;;;;;;;;;2.50;2.50;;;;;23.85;100.00;101353.75;5015313;28;45523;-74
2022/08/01 04:49:56;;;;;;;;;4.75;2.75;;;;;23.86;100.00;101344.25;4992170;28;45484;-75
2022/08/01 04:52:22;;;;;;;;;2.00;2.00;;;;;23.86;100.00;101349.84;5017757;28;45507;-76
2022/08/01 04:54:48;;;;;;;;;4.00;2.00;;;;;23.84;100.00;101352.09;5009398;28;46877;-75
2022/08/01 04:57:14;;;;;;;;;4.00;3.33;;;;;23.84;100.00;101352.91;5005753;28;47231;-74
2022/08/01 04:59:43;;;;;;;;;2.00;2.00;;;;;23.89;100.00;101363.28;5013477;28;45630;-73
2022/08/01 05:02:20;;;;;;;;;2.00;2.00;;;;;23.88;100.00;101354.06;5014167;28;45741;-74
2022/08/01 05:04:46;;;;;;;;;4.75;4.00;;;;;23.80;100.00;101351.78;5013090;28;45640;-78
2022/08/01 05:07:12;;;;;;;;;1.00;1.00;;;;;23.91;100.00;101373.09;5018344;28;45737;-74
2022/08/01 05:09:41;;;;;;;;;1.00;1.00;;;;;23.89;100.00;101366.09;4999735;28;47508;-74
2022/08/01 05:12:07;;;;;;;;;1.00;1.00;;;;;23.93;100.00;101378.41;5008943;28;45506;-73
2022/08/01 05:14:33;;;;;;;;;3.00;2.00;;;;;23.88;100.00;101362.47;5009239;28;45981;-74
2022/08/01 05:17:10;;;;;;;;;0.00;0.00;;;;;24.02;100.00;101373.91;5000140;28;46902;-75
2022/08/01 05:19:38;;;;;;;;;2.75;0.25;;;;;24.01;100.00;101372.22;5013893;28;45389;-74
2022/08/01 05:22:06;;;;;;;;;1.25;1.25;;;;;24.12;100.00;101375.84;5007545;28;45880;-77
2022/08/01 05:24:33;;;;;;;;;2.00;1.00;;;;;24.13;100.00;101381.16;5004186;28;45816;-77
2022/08/01 05:26:59;;;;;;;;;3.00;2.00;;;;;24.17;100.00;101380.59;4998845;28;46297;-76
2022/08/01 05:29:26;;;;;;;;;1.00;1.00;;;;;24.19;100.00;101375.53;5000543;28;45604;-76
2022/08/01 05:31:52;;;;;;;;;0.50;0.50;;;;;24.21;100.00;101370.50;5008757;28;45997;-77
2022/08/01 05:34:18;;;;;;;;;0.00;0.00;;;;;24.29;100.00;101370.72;5018929;28;45841;-76
2022/08/01 05:36:44;;;;;;;;;0.00;0.00;;;;;24.37;100.00;101371.25;5011931;28;48216;-73
2022/08/01 05:39:13;;;;;;;;;2.00;2.00;;;;;24.43;100.00;101367.31;5024483;28;45813;-74
2022/08/01 05:41:39;;;;;;;;;0.75;0.75;;;;;24.46;100.00;101363.94;5015411;28;45447;-74
2022/08/01 05:44:05;;;;;;;;;1.50;0.00;;;;;24.52;100.00;101368.38;5012698;28;45811;-73
2022/08/01 05:46:31;;;;;;;;;1.00;1.00;;;;;24.60;100.00;101373.44;5012206;28;47051;-75
2022/08/01 05:48:58;;;;;;;;;0.25;0.25;;;;;24.69;100.00;101365.25;5016546;28;45637;-74
2022/08/01 05:51:24;;;;;;;;;1.75;0.25;;;;;24.75;100.00;101369.69;5010026;28;45753;-77
2022/08/01 05:53:50;;;;;;;;;0.75;0.00;;;;;24.84;100.00;101376.38;5016752;28;46617;-77
2022/08/01 05:56:15;;;;;;;;;0.50;0.50;;;;;24.93;100.00;101375.78;4999495;28;46304;-75
2022/08/01 05:58:41;;;;;;;;;0.75;0.50;;;;;25.07;100.00;101373.97;5011098;28;45899;-77
2022/08/01 06:01:07;;;;;;;;;0.25;0.25;;;;;25.22;100.00;101372.19;5007702;28;45463;-73
2022/08/01 06:03:33;;;;;;;;;0.50;0.50;;;;;25.31;100.00;101367.66;5012143;28;45402;-74
2022/08/01 06:05:59;;;;;;;;;0.00;0.00;;;;;25.48;100.00;101370.03;5006572;28;46330;-73
2022/08/01 06:08:25;;;;;;;;;2.00;1.00;;;;;25.57;100.00;101367.41;5004016;28;45616;-73
2022/08/01 06:10:50;;;;;;;;;2.00;0.75;;;;;25.67;100.00;101370.97;5006913;28;45509;-73
2022/08/01 06:13:17;;;;;;;;;0.00;0.00;;;;;25.53;100.00;101355.94;5002590;28;45538;-74
2022/08/01 06:15:43;;;;;;;;;1.50;0.00;;;;;25.60;100.00;101369.63;5009527;28;45679;-74
2022/08/01 06:18:08;;;;;;;;;1.00;1.00;;;;;25.50;100.00;101371.41;5010981;28;45914;-74
2022/08/01 06:20:35;;;;;;;;;0.00;0.00;;;;;25.43;100.00;101376.53;5000587;28;46653;-75
2022/08/01 06:23:01;;;;;;;;;1.00;1.00;;;;;25.40;100.00;101379.94;5008376;28;45905;-74
2022/08/01 06:25:26;;;;;;;;;0.75;0.75;;;;;25.37;100.00;101377.72;5008946;28;47069;-74
2022/08/01 06:27:52;;;;;;;;;1.00;1.00;;;;;25.22;100.00;101356.19;5007815;28;45682;-74
2022/08/01 06:30:18;;;;;;;;;1.50;1.50;;;;;25.33;100.00;101371.84;5012179;28;45859;-74
2022/08/01 06:32:44;;;;;;;;;1.00;0.00;;;;;25.28;100.00;101368.22;5013694;28;47116;-74
2022/08/01 06:35:09;;;;;;;;;1.25;1.25;;;;;25.28;100.00;101365.41;5004168;28;47357;-75
2022/08/01 06:37:35;;;;;;;;;0.50;0.50;;;;;25.34;100.00;101378.28;5011274;28;45396;-76
2022/08/01 06:40:04;;;;;;;;;0.25;0.25;;;;;25.35;100.00;101374.38;5018398;28;46024;-73
2022/08/01 06:42:34;;;;;;;;;0.00;0.00;;;;;25.29;100.00;101364.28;5019733;28;46471;-77
2022/08/01 06:45:10;;;;;;;;;2.00;1.00;;;;;25.28;100.00;101373.81;5016009;28;45521;-77
2022/08/01 06:47:39;;;;;;;;;4.00;2.50;;;;;25.31;100.00;101376.06;5024093;28;45508;-77
2022/08/01 06:50:06;;;;;;;;;14.67;13.33;;;;;25.33;100.00;101383.09;5016668;28;45501;-78
2022/08/01 06:52:32;;;;;;;;;10.33;9.67;;;;;25.30;100.00;101371.59;5006288;28;45596;-74
2022/08/01 06:54:58;;;;;;;;;8.25;8.00;;;;;25.29;100.00;101381.13;5009298;28;46591;-73
2022/08/01 06:57:23;;;;;;;;;8.00;6.25;;;;;25.28;100.00;101382.25;5011466;28;45987;-73
2022/08/01 06:59:48;;;;;;;;;8.00;5.50;;;;;25.32;100.00;101380.56;5017223;28;45695;-72
2022/08/01 07:02:14;;;;;;;;;4.25;4.00;;;;;25.40;100.00;101379.94;5011589;28;45414;-73
2022/08/01 07:04:39;;;;;;;;;3.50;2.50;;;;;25.51;100.00;101381.53;5015685;28;46117;-74
2022/08/01 07:07:05;;;;;;;;;3.00;3.00;;;;;25.59;100.00;101368.81;5015042;28;45515;-73
2022/08/01 07:09:30;;;;;;;;;3.00;3.00;;;;;25.83;100.00;101373.63;5015848;28;45305;-73
2022/08/01 07:11:56;;;;;;;;;3.00;3.00;;;;;25.97;100.00;101362.53;5020466;28;45927;-75
2022/08/01 07:14:23;;;;;;;;;4.00;3.00;;;;;26.27;100.00;101366.97;5018897;28;45543;-73
2022/08/01 07:16:48;;;;;;;;;4.00;4.00;;;;;26.56;100.00;101374.50;5013614;28;45574;-73
2022/08/01 07:19:14;;;;;;;;;4.50;3.75;;;;;26.74;100.00;101372.88;5009489;28;45689;-74
2022/08/01 07:21:40;;;;;;;;;4.00;3.25;;;;;26.92;100.00;101377.66;5017821;28;46169;-74
2022/08/01 07:24:06;;;;;;;;;3.25;2.50;;;;;27.00;100.00;101378.94;5014061;28;47037;-74
2022/08/01 07:26:32;;;;;;;;;4.00;4.00;;;;;27.15;100.00;101374.22;5015834;28;45858;-75
2022/08/01 07:28:58;;;;;;;;;5.75;3.25;;;;;27.14;100.00;101367.75;5012070;28;45473;-75
2022/08/01 07:31:23;;;;;;;;;3.50;3.50;;;;;27.18;100.00;101384.88;5013224;28;45971;-73
2022/08/01 07:33:49;;;;;;;;;4.00;4.00;;;;;27.19;100.00;101376.13;5018365;28;45643;-74
2022/08/01 07:36:18;;;;;;;;;3.75;3.75;;;;;27.21;100.00;101370.19;5015699;28;45548;-78
2022/08/01 07:38:44;;;;;;;;;4.50;4.50;;;;;27.44;100.00;101380.53;5012619;28;46004;-77
2022/08/01 07:41:10;;;;;;;;;4.00;4.00;;;;;27.58;100.00;101382.53;5012735;28;45621;-73
2022/08/01 07:43:36;;;;;;;;;3.75;3.75;;;;;27.63;100.00;101374.81;5015706;28;46337;-73
2022/08/01 07:46:03;;;;;;;;;4.00;4.00;;;;;27.86;100.00;101391.03;5012811;28;45713;-76
2022/08/01 07:48:28;;;;;;;;;3.75;3.75;;;;;27.95;100.00;101397.63;5014157;28;45772;-74
2022/08/01 07:50:54;;;;;;;;;5.50;3.75;;;;;28.00;100.00;101389.94;5009715;28;45531;-75
2022/08/01 07:53:20;;;;;;;;;4.00;4.00;;;;;28.09;100.00;101386.41;5014615;28;45710;-73
2022/08/01 07:55:45;;;;;;;;;5.50;4.75;;;;;28.21;100.00;101395.19;5009604;28;45752;-74
2022/08/01 07:58:11;;;;;;;;;5.75;3.75;;;;;28.45;100.00;101392.16;5012371;28;45897;-75
2022/08/01 08:00:36;;;;;;;;;6.00;4.75;;;;;28.62;100.00;101383.06;5010510;28;46341;-74
2022/08/01 08:03:02;;;;;;;;;6.00;5.00;;;;;28.81;100.00;101382.09;5013570;28;46057;-76
2022/08/01 08:05:27;;;;;;;;;5.00;5.00;;;;;28.87;100.00;101389.28;5010821;28;46283;-76
2022/08/01 08:07:53;;;;;;;;;5.75;4.00;;;;;28.92;100.00;101383.50;5013956;28;45443;-76
2022/08/01 08:10:19;;;;;;;;;5.50;4.00;;;;;29.40;100.00;101394.25;5018597;28;45678;-76
2022/08/01 08:12:46;;;;;;;;;5.25;4.00;;;;;29.90;100.00;101393.25;5006078;28;46688;-76
2022/08/01 08:15:12;;;;;;;;;2.75;2.75;;;;;30.44;100.00;101389.50;5009201;28;46000;-75
2022/08/01 08:17:38;;;;;;;;;4.00;4.00;;;;;30.87;100.00;101390.72;5008798;28;45572;-75
2022/08/01 08:20:06;;;;;;;;;5.50;4.50;;;;;31.58;100.00;101393.25;5004541;28;46454;-75
2022/08/01 08:22:32;;;;;;;;;3.00;3.00;;;;;32.99;91.69;101393.44;5004001;28;46165;-75
2022/08/01 08:24:58;;;;;;;;;3.50;3.00;;;;;34.63;79.30;101397.66;5016120;28;45836;-76
2022/08/01 08:27:23;;;;;;;;;2.75;2.00;;;;;36.49;67.02;101394.75;5014979;28;45803;-75
2022/08/01 08:29:48;;;;;;;;;2.50;2.50;;;;;37.89;56.85;101394.09;5014199;28;45644;-77
2022/08/01 08:32:15;;;;;;;;;4.00;4.00;;;;;38.07;52.38;101402.13;5013860;28;45883;-76
2022/08/01 08:34:41;;;;;;;;;4.50;3.25;;;;;37.75;51.57;101396.66;5007060;28;45807;-74
2022/08/01 08:37:07;;;;;;;;;2.75;2.75;;;;;37.51;51.31;101383.50;5018953;28;46952;-76
2022/08/01 08:39:32;;;;;;;;;3.00;2.00;;;;;38.01;49.31;101381.56;5016466;28;45846;-73
2022/08/01 08:42:06;;;;;;;;;2.25;2.25;;;;;38.18;47.62;101380.28;5018691;28;45644;-80
2022/08/01 08:44:56;;;;;;;;;4.00;3.00;;;;;38.32;46.20;101374.75;5020338;28;44839;-81
2022/08/01 08:47:32;;;;;;;;;3.50;2.75;;;;;39.20;44.48;101361.28;5002102;28;45628;-77
2022/08/01 08:49:59;;;;;;;;;4.50;3.75;;;;;39.64;42.07;101364.63;5014853;28;45787;-78
2022/08/01 08:52:26;;;;;;;;;15.00;12.00;;;;;39.93;41.20;101374.34;5017001;28;46039;-77
2022/08/01 08:54:52;;;;;;;;;14.33;13.00;;;;;39.90;40.29;101370.22;5011898;28;45866;-77
2022/08/01 08:57:20;;;;;;;;;12.00;10.50;;;;;40.13;39.43;101356.91;5014318;28;45871;-75
2022/08/01 08:59:46;;;;;;;;;6.00;6.00;;;;;40.25;38.50;101368.88;5021480;28;45848;-76
2022/08/01 09:02:12;;;;;;;;;7.67;7.67;;;;;40.02;38.67;101359.69;5012485;28;46570;-76
2022/08/01 09:04:39;;;;;;;;;4.00;4.00;;;;;39.62;38.63;101365.03;5012796;28;45505;-75
2022/08/01 09:07:08;;;;;;;;;2.00;2.00;;;;;39.27;39.55;101356.81;5013316;28;45498;-75
2022/08/01 09:09:34;;;;;;;;;2.75;2.75;;;;;39.07;39.74;101370.50;5012049;28;45427;-76
2022/08/01 09:12:00;;;;;;;;;4.25;2.75;;;;;38.20;40.35;101383.56;5010563;28;46818;-76
2022/08/01 09:14:34;;;;;;;;;5.00;3.00;;;;;37.39;41.85;101362.44;5004700;28;45752;-75
2022/08/01 09:17:03;;;;;;;;;2.00;2.00;;;;;36.91;43.25;101382.66;5011600;28;45856;-77
2022/08/01 09:19:39;;;;;;;;;5.00;3.75;;;;;36.40;44.82;101380.66;5011362;28;45882;-75
2022/08/01 09:22:07;;;;;;;;;2.50;2.50;;;;;35.97;45.32;101373.03;5010844;28;46013;-77
2022/08/01 09:24:34;;;;;;;;;7.00;7.00;;;;;35.57;46.04;101371.13;5011695;28;45448;-77
2022/08/01 09:27:01;;;;;;;;;3.25;2.50;;;;;35.03;46.83;101383.81;5016148;28;45872;-76
2022/08/01 09:29:30;;;;;;;;;9.67;9.67;;;;;34.51;49.56;101382.59;5016206;28;45777;-77
2022/08/01 09:31:57;;;;;;;;;4.75;4.25;;;;;34.25;50.48;101376.09;5011240;28;45513;-77
2022/08/01 09:34:28;;;;;;;;;4.00;3.00;;;;;33.77;50.57;101369.13;5013092;28;45843;-77
2022/08/01 09:36:57;;;;;;;;;7.75;5.75;;;;;33.33;52.51;101368.78;5011517;28;45837;-77
2022/08/01 09:39:28;;;;;;;;;3.75;3.75;;;;;32.88;55.81;101381.66;5009854;28;45499;-79
2022/08/01 09:42:21;;;;;;;;;3.00;3.00;;;;;32.51;57.26;101381.38;5010020;28;47691;-77
2022/08/01 09:44:47;;;;;;;;;1.00;1.00;;;;;32.10;58.86;101366.72;5018775;28;45382;-76
2022/08/01 09:47:13;;;;;;;;;11.00;11.00;;;;;31.68;61.99;101381.56;5000761;28;45804;-75
2022/08/01 09:49:40;;;;;;;;;5.25;5.25;;;;;31.36;66.15;101377.25;5004432;28;45825;-76
2022/08/01 09:52:13;;;;;;;;;7.33;6.00;;;;;31.11;70.27;101381.75;5011933;28;45821;-75
2022/08/01 09:54:41;;;;;;;;;4.50;4.50;;;;;31.05;72.34;101377.44;5004275;28;45587;-78
2022/08/01 09:57:17;;;;;;;;;4.50;4.00;;;;;31.24;72.88;101380.75;5009931;28;45503;-76
2022/08/01 09:59:48;;;;;;;;;5.50;4.25;;;;;31.60;71.86;101385.22;5017366;28;45983;-76
2022/08/01 10:02:27;;;;;;;;;2.50;2.50;;;;;31.85;70.59;101389.16;5010874;28;45708;-78
2022/08/01 10:04:53;;;;;;;;;5.00;4.50;;;;;31.85;70.53;101386.34;5008118;28;46008;-76
2022/08/01 10:07:19;;;;;;;;;4.00;3.25;;;;;32.13;68.28;101391.59;5011967;28;45884;-76
2022/08/01 10:09:46;;;;;;;;;4.00;4.00;;;;;32.65;65.70;101355.56;5013372;28;46746;-76
2022/08/01 10:12:17;;;;;;;;;3.00;3.00;;;;;34.22;59.91;101370.25;5010073;28;47113;-76
2022/08/01 10:14:45;;;;;;;;;3.75;2.25;;;;;35.50;54.03;101378.31;5011562;28;45972;-77
2022/08/01 10:17:16;;;;;;;;;3.25;3.25;;;;;37.17;49.62;101375.44;5024198;28;45447;-76
2022/08/01 10:19:43;;;;;;;;;2.50;2.50;;;;;38.87;44.11;101369.84;5019124;28;45390;-79
2022/08/01 10:22:10;;;;;;;;;3.50;3.50;;;;;39.71;42.08;101390.56;5004119;28;45790;-78
2022/08/01 10:24:41;;;;;;;;;2.75;2.75;;;;;40.36;39.72;101389.09;5010857;28;45541;-81
2022/08/01 10:27:08;;;;;;;;;2.00;2.00;;;;;40.53;37.88;101392.53;5011671;28;45594;-77
2022/08/01 10:29:42;;;;;;;;;4.00;4.00;;;;;40.13;37.88;101391.38;5013760;28;45403;-79
2022/08/01 10:32:09;;;;;;;;;3.00;3.00;;;;;39.60;38.28;101390.44;5004339;28;45660;-79
2022/08/01 10:34:36;;;;;;;;;2.00;2.00;;;;;39.12;38.37;101387.38;5010400;28;46437;-79
2022/08/01 10:37:03;;;;;;;;;3.25;3.25;;;;;38.43;39.09;101383.53;5021858;28;45665;-79
2022/08/01 10:39:30;;;;;;;;;5.00;5.00;;;;;37.61;40.96;101388.63;5014206;28;45841;-79
2022/08/01 10:41:56;;;;;;;;;5.00;3.25;;;;;37.08;42.62;101392.84;5010089;28;46404;-78
2022/08/01 10:44:24;;;;;;;;;3.50;3.00;;;;;36.70;43.68;101385.84;5010190;28;45628;-76
2022/08/01 10:46:57;;;;;;;;;2.50;2.50;;;;;36.13;44.45;101387.31;5002902;28;45477;-79
2022/08/01 10:49:27;;;;;;;;;2.50;2.50;;;;;35.62;45.42;101374.56;5009316;28;46218;-78
2022/08/01 10:51:54;;;;;;;;;4.75;3.50;;;;;35.13;47.02;101377.63;5009459;28;46094;-79
2022/08/01 10:54:25;;;;;;;;;3.00;3.00;;;;;34.68;48.58;101376.63;5010757;28;45568;-79
2022/08/01 10:56:52;;;;;;;;;2.50;2.50;;;;;34.48;49.93;101375.63;5007371;28;45609;-79
2022/08/01 10:59:26;;;;;;;;;4.25;3.00;;;;;34.16;50.38;101378.19;5013463;28;45483;-79
2022/08/01 11:02:03;;;;;;;;;2.25;2.25;;;;;34.07;51.48;101377.47;5004145;28;45762;-78
2022/08/01 11:04:53;;;;;;;;;4.50;3.00;;;;;34.13;51.26;101376.06;5011285;28;45834;-79
2022/08/01 11:07:36;;;;;;;;;3.00;3.00;;;;;34.06;51.91;101372.97;5001897;28;45446;-79
2022/08/01 11:10:15;;;;;;;;;3.00;3.00;;;;;34.14;52.36;101369.19;5010190;28;46123;-80
2022/08/01 11:12:42;;;;;;;;;3.75;3.75;;;;;34.15;52.28;101376.56;5017449;28;46268;-79
2022/08/01 11:15:11;;;;;;;;;4.00;4.00;;;;;34.25;52.49;101380.91;5007092;28;45887;-79
2022/08/01 11:17:44;;;;;;;;;2.50;2.50;;;;;34.34;51.48;101380.84;5023498;28;45671;-81
2022/08/01 11:20:16;;;;;;;;;2.75;2.75;;;;;34.24;52.33;101376.41;5011379;28;45500;-83
2022/08/01 11:23:04;;;;;;;;;5.00;5.00;;;;;34.18;52.91;101373.00;5012779;28;46300;-81
2022/08/01 11:25:36;;;;;;;;;5.00;3.50;;;;;34.43;52.69;101367.28;5021671;28;45533;-78
2022/08/01 11:28:20;;;;;;;;;3.50;3.00;;;;;34.80;52.17;101378.66;5019568;28;45849;-80